createdAt,value
2018-04-07T12:28:51.070Z,98891.34
2018-04-07T12:31:18.638Z,98889.81
2018-04-07T12:33:46.209Z,98897.12
2018-04-07T12:36:13.887Z,98886.45
2018-04-07T12:38:41.468Z,98889.48
2018-04-07T12:41:10.763Z,98897.91
2018-04-07T12:43:38.426Z,98894.17
2018-04-07T12:46:06.018Z,98896.83
2018-04-07T12:48:33.646Z,98902.52
2018-04-07T12:51:01.407Z,98897.09
2018-04-07T12:53:29.066Z,98891.54
2018-04-07T12:55:56.629Z,98888.42
2018-04-07T12:58:24.246Z,98894.39
2018-04-07T13:00:51.869Z,98892.36
2018-04-07T13:03:19.530Z,98885.41
2018-04-07T13:05:47.156Z,98891.43
2018-04-07T13:08:14.746Z,98885.72
2018-04-07T13:10:42.316Z,98897.43
2018-04-07T13:13:10.098Z,98892.52
2018-04-07T13:15:37.696Z,98902.75
2018-04-07T13:18:05.318Z,98891.41
2018-04-07T13:20:33.528Z,98902.59
2018-04-07T13:23:01.190Z,98902.97
2018-04-07T13:25:28.839Z,98899.31
2018-04-07T13:27:56.526Z,98900.72
2018-04-07T13:30:24.231Z,98895.02
2018-04-07T13:32:51.853Z,98897.61
2018-04-07T13:35:19.498Z,98897.95
2018-04-07T13:37:47.061Z,98895.97
2018-04-07T13:40:14.691Z,98890.75
2018-04-07T13:42:42.407Z,98899.44
2018-04-07T13:45:10.046Z,98902.30
2018-04-07T13:47:37.621Z,98902.86
2018-04-07T13:50:05.332Z,98904.17
2018-04-07T13:52:32.966Z,98899.85
2018-04-07T13:55:00.538Z,98906.06
2018-04-07T13:57:28.249Z,98902.41
2018-04-07T13:59:55.826Z,98902.53
2018-04-07T14:02:23.471Z,98900.28
2018-04-07T14:04:51.094Z,98909.98
2018-04-07T14:07:18.740Z,98910.86
2018-04-07T14:09:46.371Z,98915.38
2018-04-07T14:12:13.990Z,98916.28
2018-04-07T14:14:41.562Z,98914.98
2018-04-07T14:17:09.134Z,98919.41
2018-04-07T14:19:36.845Z,98927.20
2018-04-07T14:22:04.431Z,98922.48
2018-04-07T14:24:32.030Z,98923.92
2018-04-07T14:26:59.653Z,98923.53
2018-04-07T14:29:27.228Z,98917.57
2018-04-07T14:31:55.181Z,98919.81
2018-04-07T14:34:22.861Z,98912.44
2018-04-07T14:36:50.418Z,98923.43
2018-04-07T14:39:18.984Z,98932.81
2018-04-07T14:41:46.659Z,98927.13
2018-04-07T14:44:14.221Z,98924.52
2018-04-07T14:46:41.805Z,98928.66
2018-04-07T14:49:09.513Z,98922.40
2018-04-07T14:51:37.142Z,98923.23
2018-04-07T14:54:04.734Z,98932.89
2018-04-07T14:56:32.433Z,98929.13
2018-04-07T14:59:00.009Z,98927.87
2018-04-07T15:01:27.594Z,98922.44
2018-04-07T15:03:55.203Z,98924.23
2018-04-07T15:06:22.826Z,98920.39
2018-04-07T15:08:50.422Z,98924.50
2018-04-07T15:11:18.101Z,98926.78
2018-04-07T15:13:45.689Z,98925.88
2018-04-07T15:16:13.290Z,98925.26
2018-04-07T15:18:40.967Z,98928.42
2018-04-07T15:21:08.550Z,98933.84
2018-04-07T15:23:36.121Z,98931.67
2018-04-07T15:26:03.752Z,98936.47
2018-04-07T15:28:31.459Z,98928.93
2018-04-07T15:30:59.178Z,98932.61
2018-04-07T15:33:27.440Z,98925.13
2018-04-07T15:35:55.009Z,98930.47
2018-04-07T15:38:22.606Z,98938.88
2018-04-07T15:40:50.396Z,98932.70
2018-04-07T15:43:18.027Z,98941.52
2018-04-07T15:45:45.602Z,98941.34
2018-04-07T15:48:13.323Z,98940.64
2018-04-07T15:50:40.896Z,98942.33
2018-04-07T15:53:08.618Z,98942.47
2018-04-07T15:55:36.344Z,98941.70
2018-04-07T15:58:03.994Z,98940.78
2018-04-07T16:00:31.568Z,98936.02
2018-04-07T16:02:59.241Z,98935.87
2018-04-07T16:05:26.864Z,98946.52
2018-04-07T16:07:54.492Z,98948.08
2018-04-07T16:10:22.261Z,98944.95
2018-04-07T16:12:49.951Z,98945.43
2018-04-07T16:15:17.561Z,98957.56
2018-04-07T16:17:45.351Z,98948.16
2018-04-07T16:20:12.978Z,98951.01
2018-04-07T16:22:40.562Z,98954.55
2018-04-07T16:25:08.240Z,98950.57
2018-04-07T16:27:35.870Z,98949.75
2018-04-07T16:30:03.528Z,98963.01
2018-04-07T16:32:32.049Z,98963.99
2018-04-07T16:34:59.821Z,98955.92
2018-04-07T16:37:27.467Z,98966.97
2018-04-07T16:39:55.153Z,98969.88
2018-04-07T16:42:22.766Z,98962.03
2018-04-07T16:44:50.341Z,98968.67
2018-04-07T16:47:18.084Z,98963.09
2018-04-07T16:49:45.671Z,98977.94
2018-04-07T16:52:13.262Z,98970.48
2018-04-07T16:54:41.030Z,98973.73
2018-04-07T16:57:08.764Z,98977.76
2018-04-07T16:59:36.362Z,98978.06
2018-04-07T17:02:04.070Z,98980.80
2018-04-07T17:04:31.714Z,98975.37
2018-04-07T17:06:59.403Z,98976.32
2018-04-07T17:09:27.069Z,98973.38
2018-04-07T17:11:55.015Z,98983.95
2018-04-07T17:14:22.661Z,98984.62
2018-04-07T17:16:50.403Z,98989.09
2018-04-07T17:19:18.005Z,98986.38
2018-04-07T17:21:45.650Z,98995.22
2018-04-07T17:24:13.518Z,99003.09
2018-04-07T17:26:41.100Z,99000.66
2018-04-07T17:29:08.671Z,99012.42
2018-04-07T17:31:36.375Z,99014.94
2018-04-07T17:34:03.949Z,99013.48
2018-04-07T17:36:31.609Z,99036.56
2018-04-07T17:38:59.254Z,99025.52
2018-04-07T17:41:26.966Z,99043.28
2018-04-07T17:43:54.542Z,99043.70
2018-04-07T17:46:22.209Z,99054.80
2018-04-07T17:48:49.871Z,99057.02
2018-04-07T17:51:17.890Z,99063.00
2018-04-07T17:53:45.515Z,99066.02
2018-04-07T17:56:13.692Z,99070.34
2018-04-07T17:58:41.278Z,99074.62
2018-04-07T18:01:09.633Z,99073.07
2018-04-07T18:03:37.302Z,99072.42
2018-04-07T18:06:04.933Z,99076.84
2018-04-07T18:08:32.620Z,99084.05
2018-04-07T18:11:00.252Z,99078.46
2018-04-07T18:13:27.952Z,99084.30
2018-04-07T18:15:55.584Z,99091.20
2018-04-07T18:18:23.161Z,99093.28
2018-04-07T18:20:50.758Z,99101.44
2018-04-07T18:23:18.391Z,99105.81
2018-04-07T18:25:46.006Z,99105.05
2018-04-07T18:28:13.659Z,99110.81
2018-04-07T18:30:41.295Z,99110.98
2018-04-07T18:33:09.010Z,99120.46
2018-04-07T18:35:36.586Z,99121.58
2018-04-07T18:38:05.702Z,99121.78
2018-04-07T18:40:33.323Z,99126.48
2018-04-07T18:43:00.962Z,99127.53
2018-04-07T18:45:28.775Z,99128.01
2018-04-07T18:47:56.429Z,99129.38
2018-04-07T18:50:24.015Z,99134.41
2018-04-07T18:52:51.682Z,99135.67
2018-04-07T18:55:19.252Z,99140.20
2018-04-07T18:57:46.889Z,99140.56
2018-04-07T19:00:14.574Z,99145.92
2018-04-07T19:02:42.182Z,99147.11
2018-04-07T19:05:09.798Z,99147.95
2018-04-07T19:07:37.541Z,99149.42
2018-04-07T19:10:05.235Z,99152.48
2018-04-07T19:12:32.805Z,99143.27
2018-04-07T19:15:00.439Z,99149.38
2018-04-07T19:17:28.083Z,99142.14
2018-04-07T19:19:55.659Z,99149.34
2018-04-07T19:22:23.321Z,99152.28
2018-04-07T19:24:50.995Z,99155.21
2018-04-07T19:27:18.629Z,99166.54
2018-04-07T19:29:46.511Z,99172.48
2018-04-07T19:32:14.082Z,99180.23
2018-04-07T19:34:41.716Z,99180.84
2018-04-07T19:37:09.342Z,99187.17
2018-04-07T19:39:36.983Z,99190.11
2018-04-07T19:42:04.645Z,99193.89
2018-04-07T19:44:32.358Z,99201.82
2018-04-07T19:46:59.929Z,99207.23
2018-04-07T19:49:27.514Z,99202.91
2018-04-07T19:51:55.267Z,99205.76
2018-04-07T19:54:22.837Z,99207.36
2018-04-07T19:56:50.472Z,99203.74
2018-04-07T19:59:18.178Z,99205.13
2018-04-07T20:01:45.810Z,99202.36
2018-04-07T20:04:13.396Z,99196.85
2018-04-07T20:06:41.018Z,99207.24
2018-04-07T20:09:08.694Z,99201.28
2018-04-07T20:11:36.262Z,99203.91
2018-04-07T20:14:03.907Z,99203.08
2018-04-07T20:16:31.602Z,99206.77
2018-04-07T20:18:59.166Z,99206.50
2018-04-07T20:21:26.873Z,99202.15
2018-04-07T20:23:54.449Z,99202.96
2018-04-07T20:26:22.099Z,99201.78
2018-04-07T20:28:49.843Z,99206.12
2018-04-07T20:31:19.400Z,99206.71
2018-04-07T20:33:47.034Z,99211.70
2018-04-07T20:36:14.666Z,99208.13
2018-04-07T20:38:44.250Z,99210.70
2018-04-07T20:41:11.924Z,99202.80
2018-04-07T20:43:39.627Z,99208.37
2018-04-07T20:46:07.195Z,99203.75
2018-04-07T20:48:34.850Z,99207.47
2018-04-07T20:51:02.575Z,99204.81
2018-04-07T20:53:30.144Z,99216.22
2018-04-07T20:55:57.783Z,99213.27
2018-04-07T20:58:25.431Z,99211.62
2018-04-07T21:00:53.014Z,99212.52
2018-04-07T21:03:20.656Z,99212.19
2018-04-07T21:05:48.439Z,99211.02
2018-04-07T21:08:16.059Z,99207.69
2018-04-07T21:10:43.756Z,99212.46
2018-04-07T21:13:11.570Z,99203.95
2018-04-07T21:15:39.216Z,99204.38
2018-04-07T21:18:06.851Z,99202.12
2018-04-07T21:20:34.481Z,99200.27
2018-04-07T21:23:02.129Z,99194.45
2018-04-07T21:25:29.775Z,99189.40
2018-04-07T21:27:57.519Z,99190.50
2018-04-07T21:30:25.125Z,99193.22
2018-04-07T21:32:52.713Z,99191.73
2018-04-07T21:35:20.426Z,99192.66
2018-04-07T21:37:48.151Z,99196.45
2018-04-07T21:40:15.723Z,99187.77
2018-04-07T21:42:44.248Z,99182.21
2018-04-07T21:45:11.878Z,99189.75
2018-04-07T21:47:39.458Z,99186.02
2018-04-07T21:50:07.209Z,99187.80
2018-04-07T21:52:34.824Z,99190.77
2018-04-07T21:55:02.409Z,99178.95
2018-04-07T21:57:30.130Z,99179.39
2018-04-07T21:59:57.720Z,99171.59
2018-04-07T22:02:25.297Z,99177.34
2018-04-07T22:04:52.975Z,99179.39
2018-04-07T22:07:20.555Z,99182.67
2018-04-07T22:09:48.136Z,99184.27
2018-04-07T22:12:15.854Z,99181.91
2018-04-07T22:14:43.434Z,99189.24
2018-04-07T22:17:11.051Z,99186.81
2018-04-07T22:19:38.822Z,99178.13
2018-04-07T22:22:06.458Z,99189.94
2018-04-07T22:24:34.082Z,99181.56
2018-04-07T22:27:01.792Z,99176.16
2018-04-07T22:29:29.423Z,99174.48
2018-04-07T22:31:57.062Z,99177.62
2018-04-07T22:34:24.697Z,99174.56
2018-04-07T22:36:52.284Z,99175.50
2018-04-07T22:39:19.960Z,99171.78
2018-04-07T22:41:47.625Z,99169.51
2018-04-07T22:44:15.355Z,99166.88
2018-04-07T22:46:43.020Z,99159.55
2018-04-07T22:49:10.726Z,99158.93
2018-04-07T22:51:38.370Z,99161.98
2018-04-07T22:54:06.029Z,99161.05
2018-04-07T22:56:33.810Z,99159.78
2018-04-07T22:59:01.463Z,99152.25
2018-04-07T23:01:29.091Z,99151.59
2018-04-07T23:03:56.698Z,99153.71
2018-04-07T23:06:24.270Z,99153.18
2018-04-07T23:08:51.845Z,99149.05
2018-04-07T23:11:19.502Z,99148.03
2018-04-07T23:13:47.068Z,99141.42
2018-04-07T23:16:14.656Z,99144.38
2018-04-07T23:18:42.277Z,99134.07
2018-04-07T23:21:09.866Z,99134.65
2018-04-07T23:23:37.436Z,99130.27
2018-04-07T23:26:05.150Z,99124.23
2018-04-07T23:28:32.743Z,99123.41
2018-04-07T23:31:00.325Z,99115.59
2018-04-07T23:33:28.049Z,99116.16
2018-04-07T23:35:55.715Z,99103.49
2018-04-07T23:38:23.340Z,99108.05
2018-04-07T23:40:51.093Z,99109.25
2018-04-07T23:43:18.671Z,99106.89
2018-04-07T23:45:46.366Z,99101.39
2018-04-07T23:48:14.046Z,99103.31
2018-04-07T23:50:41.670Z,99103.00
2018-04-07T23:53:09.251Z,99099.50
2018-04-07T23:55:36.871Z,99091.31
2018-04-07T23:58:04.528Z,99095.64
